createdAt,value
2022-09-17T00:01:31.183Z,0.28
2022-09-17T00:04:04.606Z,0.60
2022-09-17T00:06:35.658Z,0.43
2022-09-17T00:09:05.600Z,0.55
2022-09-17T00:11:36.190Z,0.38
2022-09-17T00:14:05.127Z,0.60
2022-09-17T00:16:37.563Z,0.50
2022-09-17T00:19:06.667Z,0.52
2022-09-17T00:21:33.543Z,0.30
2022-09-17T00:24:05.335Z,0.50
2022-09-17T00:26:33.482Z,0.40
2022-09-17T00:29:01.231Z,0.43
2022-09-17T00:31:29.719Z,0.35
2022-09-17T00:33:58.590Z,0.35
2022-09-17T00:36:25.768Z,0.40
2022-09-17T00:38:56.243Z,0.30
2022-09-17T00:41:27.570Z,0.30
2022-09-17T00:44:01.563Z,0.57
2022-09-17T00:46:42.541Z,0.50
2022-09-17T00:49:22.721Z,0.50
2022-09-17T00:52:10.025Z,0.50
2022-09-17T00:54:45.059Z,0.40
2022-09-17T00:57:12.423Z,0.40
2022-09-17T00:59:39.423Z,0.50
2022-09-17T01:02:06.620Z,0.60
2022-09-17T01:04:33.692Z,0.45
2022-09-17T01:07:28.412Z,0.57
2022-09-17T01:10:36.235Z,0.40
2022-09-17T01:13:31.778Z,0.50
2022-09-17T01:17:01.766Z,0.45
2022-09-17T01:20:25.609Z,0.47
2022-09-17T01:23:41.595Z,0.47
2022-09-17T01:26:17.428Z,0.40
2022-09-17T01:29:25.994Z,0.70
2022-09-17T01:32:25.339Z,0.70
2022-09-17T01:35:12.265Z,0.40
2022-09-17T01:38:12.327Z,0.47
2022-09-17T01:40:55.971Z,0.52
2022-09-17T01:43:34.874Z,0.40
2022-09-17T01:46:15.053Z,0.35
2022-09-17T01:48:47.416Z,0.60
2022-09-17T01:51:26.855Z,0.70
2022-09-17T01:54:03.436Z,0.77
2022-09-17T01:57:04.621Z,0.60
2022-09-17T01:59:41.820Z,0.60
2022-09-17T02:02:49.033Z,0.70
2022-09-17T02:05:31.090Z,0.60
2022-09-17T02:08:15.149Z,0.80
2022-09-17T02:11:06.984Z,0.75
2022-09-17T02:14:12.860Z,0.68
2022-09-17T02:16:50.373Z,0.80
2022-09-17T02:19:35.602Z,0.90
2022-09-17T02:22:14.239Z,0.60
2022-09-17T02:25:05.393Z,0.75
2022-09-17T02:27:54.969Z,0.73
2022-09-17T02:30:21.886Z,0.65
2022-09-17T02:32:49.023Z,0.70
2022-09-17T02:35:16.557Z,0.95
2022-09-17T02:37:44.607Z,1.00
2022-09-17T02:40:14.952Z,0.75
2022-09-17T02:43:22.910Z,0.85
2022-09-17T02:46:20.355Z,0.60
2022-09-17T02:49:35.022Z,0.80
2022-09-17T02:52:34.658Z,0.50
2022-09-17T02:56:03.480Z,0.88
2022-09-17T02:58:53.661Z,0.60
2022-09-17T03:01:35.014Z,0.88
2022-09-17T03:04:05.078Z,0.75
2022-09-17T03:06:32.324Z,0.90
2022-09-17T03:08:59.229Z,0.82
2022-09-17T03:11:26.172Z,1.52
2022-09-17T03:13:53.126Z,0.70
2022-09-17T03:16:20.054Z,0.60
2022-09-17T03:18:46.977Z,1.08
2022-09-17T03:21:14.379Z,0.60
2022-09-17T03:23:41.306Z,0.85
2022-09-17T03:26:08.273Z,0.77
2022-09-17T03:28:35.191Z,0.32
2022-09-17T03:31:02.134Z,0.98
2022-09-17T03:33:29.074Z,1.00
2022-09-17T03:35:55.930Z,0.85
2022-09-17T03:38:22.923Z,0.40
2022-09-17T03:41:07.538Z,0.60
2022-09-17T03:43:34.963Z,0.45
2022-09-17T03:46:01.933Z,0.43
2022-09-17T03:48:29.629Z,0.98
2022-09-17T03:50:56.848Z,0.98
2022-09-17T03:53:23.960Z,0.90
2022-09-17T03:55:51.028Z,0.50
2022-09-17T03:58:17.921Z,1.00
2022-09-17T04:00:44.968Z,0.70
2022-09-17T04:03:12.216Z,0.70
2022-09-17T04:05:39.117Z,0.98
2022-09-17T04:08:05.994Z,0.90
2022-09-17T04:10:33.024Z,0.75
2022-09-17T04:12:59.911Z,0.90
2022-09-17T04:15:26.866Z,0.55
2022-09-17T04:17:58.027Z,0.60
2022-09-17T04:20:26.092Z,1.13
2022-09-17T04:22:53.856Z,0.90
2022-09-17T04:25:20.791Z,0.68
2022-09-17T04:27:48.684Z,1.02
2022-09-17T04:30:15.788Z,0.90
2022-09-17T04:32:45.164Z,1.00
2022-09-17T04:35:13.119Z,1.00
2022-09-17T04:37:40.389Z,1.08
2022-09-17T04:40:08.480Z,0.93
2022-09-17T04:42:35.468Z,0.77
2022-09-17T04:45:02.345Z,0.90
2022-09-17T04:47:29.289Z,0.65
2022-09-17T04:49:56.172Z,0.80
2022-09-17T04:52:24.814Z,0.90
2022-09-17T04:54:54.546Z,1.02
2022-09-17T04:57:23.496Z,0.88
2022-09-17T04:59:50.424Z,0.88
2022-09-17T05:02:18.104Z,1.20
2022-09-17T05:04:45.030Z,1.25
2022-09-17T05:07:13.953Z,0.88
2022-09-17T05:09:45.236Z,0.90
2022-09-17T05:12:12.136Z,0.80
2022-09-17T05:14:39.084Z,0.88
2022-09-17T05:17:06.035Z,1.40
2022-09-17T05:19:32.921Z,1.35
2022-09-17T05:21:59.970Z,1.30
2022-09-17T05:24:27.319Z,1.25
2022-09-17T05:26:54.219Z,1.10
2022-09-17T05:29:22.447Z,1.23
2022-09-17T05:31:49.408Z,1.48
2022-09-17T05:34:16.376Z,1.60
2022-09-17T05:36:43.263Z,1.17
2022-09-17T05:39:10.124Z,1.40
2022-09-17T05:41:37.039Z,1.55
2022-09-17T05:44:04.108Z,1.17
2022-09-17T05:46:31.360Z,1.10
2022-09-17T05:48:58.718Z,0.90
2022-09-17T05:51:25.694Z,1.55
2022-09-17T05:53:55.426Z,1.30
2022-09-17T05:56:23.941Z,1.30
2022-09-17T05:58:51.165Z,1.00
2022-09-17T06:01:18.325Z,1.02
2022-09-17T06:03:45.262Z,1.40
2022-09-17T06:06:12.154Z,1.27
2022-09-17T06:08:39.083Z,1.30
2022-09-17T06:11:07.521Z,1.55
2022-09-17T06:13:35.609Z,0.85
2022-09-17T06:16:03.743Z,1.20
2022-09-17T06:18:31.841Z,1.15
2022-09-17T06:21:02.140Z,1.75
2022-09-17T06:23:35.118Z,1.38
2022-09-17T06:26:03.272Z,1.08
2022-09-17T06:28:30.260Z,1.30
2022-09-17T06:31:02.695Z,1.17
2022-09-17T06:33:31.652Z,1.10
2022-09-17T06:36:08.522Z,1.50
2022-09-17T06:38:38.131Z,1.45
2022-09-17T06:41:05.332Z,1.75
2022-09-17T06:43:32.239Z,1.40
2022-09-17T06:46:02.176Z,1.45
2022-09-17T06:48:30.882Z,1.25
2022-09-17T06:51:05.584Z,1.02
2022-09-17T06:53:33.031Z,1.65
2022-09-17T06:56:05.912Z,0.90
2022-09-17T06:58:34.353Z,0.73
2022-09-17T07:01:02.368Z,1.13
2022-09-17T07:03:30.890Z,1.15
2022-09-17T07:05:58.478Z,1.08
2022-09-17T07:08:26.179Z,1.20
2022-09-17T07:10:57.224Z,0.98
2022-09-17T07:13:25.779Z,1.33
2022-09-17T07:15:58.132Z,1.20
2022-09-17T07:18:26.124Z,0.95
2022-09-17T07:20:58.503Z,1.33
2022-09-17T07:23:29.362Z,1.33
2022-09-17T07:25:59.495Z,0.77
2022-09-17T07:28:27.478Z,1.23
2022-09-17T07:30:55.666Z,1.45
2022-09-17T07:33:25.644Z,1.75
2022-09-17T07:36:00.930Z,1.30
2022-09-17T07:38:29.673Z,1.33
2022-09-17T07:41:07.629Z,1.73
2022-09-17T07:43:35.837Z,0.68
2022-09-17T07:46:05.600Z,1.30
2022-09-17T07:48:33.425Z,1.77
2022-09-17T07:51:00.566Z,0.75
2022-09-17T07:53:28.064Z,1.50
2022-09-17T07:55:57.668Z,1.83
2022-09-17T07:58:31.146Z,1.95
2022-09-17T08:01:08.268Z,1.30
2022-09-17T08:03:36.537Z,1.40
2022-09-17T08:06:09.593Z,1.58
2022-09-17T08:08:38.589Z,1.50
2022-09-17T08:11:38.135Z,1.45
2022-09-17T08:14:10.359Z,1.77
2022-09-17T08:16:37.379Z,2.10
2022-09-17T08:19:04.507Z,1.25
2022-09-17T08:21:31.662Z,1.80
2022-09-17T08:23:58.880Z,1.45
2022-09-17T08:26:26.753Z,1.48
2022-09-17T08:28:56.369Z,2.30
2022-09-17T08:31:26.627Z,1.45
2022-09-17T08:33:54.036Z,1.40
2022-09-17T08:36:22.905Z,1.88
2022-09-17T08:38:54.073Z,2.25
2022-09-17T08:41:45.983Z,1.90
2022-09-17T08:44:23.459Z,2.35
2022-09-17T08:47:01.308Z,1.83
2022-09-17T08:49:36.573Z,2.20
2022-09-17T08:52:54.192Z,1.70
2022-09-17T08:55:46.407Z,2.03
2022-09-17T08:58:52.751Z,1.02
2022-09-17T09:01:44.814Z,1.67
2022-09-17T09:04:39.100Z,1.48
2022-09-17T09:07:17.318Z,1.90
2022-09-17T09:10:04.344Z,1.50
2022-09-17T09:12:35.083Z,1.35
2022-09-17T09:15:15.747Z,1.75
2022-09-17T09:17:46.697Z,1.38
2022-09-17T09:20:32.571Z,1.60
2022-09-17T09:23:13.895Z,2.00
2022-09-17T09:26:00.242Z,2.13
2022-09-17T09:28:53.574Z,2.20
2022-09-17T09:31:56.230Z,2.28
2022-09-17T09:36:52.423Z,1.58
2022-09-17T09:39:26.128Z,1.98
2022-09-17T09:42:05.827Z,1.42
2022-09-17T09:44:32.858Z,1.98
2022-09-17T09:47:39.120Z,1.35
2022-09-17T09:50:48.703Z,1.95
2022-09-17T09:53:46.092Z,2.08
2022-09-17T09:56:34.110Z,1.17
2022-09-17T09:59:01.485Z,1.10
2022-09-17T10:01:41.765Z,1.73
2022-09-17T10:04:29.287Z,1.40
2022-09-17T10:07:07.200Z,1.33
2022-09-17T10:09:38.435Z,1.40
2022-09-17T10:12:11.425Z,1.05
2022-09-17T10:14:46.703Z,1.27
2022-09-17T10:17:26.910Z,2.13
2022-09-17T10:19:59.867Z,1.38
2022-09-17T10:22:47.055Z,1.30
2022-09-17T10:25:34.936Z,1.02
2022-09-17T10:28:06.144Z,1.45
2022-09-17T10:30:33.231Z,1.20
2022-09-17T10:33:40.979Z,1.15
2022-09-17T10:36:14.717Z,1.55
2022-09-17T10:38:46.157Z,1.63
2022-09-17T10:41:14.587Z,0.95
2022-09-17T10:43:42.264Z,2.25
2022-09-17T10:46:17.174Z,1.85
2022-09-17T10:49:11.347Z,1.33
2022-09-17T10:51:39.365Z,1.25
2022-09-17T10:54:23.506Z,1.25
2022-09-17T10:56:57.318Z,1.38
2022-09-17T10:59:53.497Z,1.10
2022-09-17T11:03:24.318Z,1.75
2022-09-17T11:06:15.384Z,1.23
2022-09-17T11:09:10.068Z,1.30
2022-09-17T11:12:04.160Z,1.20
2022-09-17T11:14:51.177Z,0.93
2022-09-17T11:17:55.170Z,1.42
2022-09-17T11:20:53.467Z,1.60
2022-09-17T11:23:52.585Z,1.40
2022-09-17T11:26:55.840Z,1.00
2022-09-17T11:29:51.877Z,1.00
2022-09-17T11:32:49.780Z,1.90
2022-09-17T11:35:24.173Z,0.90
2022-09-17T11:38:20.839Z,0.60
2022-09-17T11:41:08.108Z,0.52
2022-09-17T11:43:38.819Z,0.50
2022-09-17T11:46:23.725Z,0.63
2022-09-17T11:49:13.672Z,0.50
2022-09-17T11:52:11.210Z,0.80
2022-09-17T11:54:55.243Z,1.23
2022-09-17T11:57:35.398Z,0.60
2022-09-17T12:00:18.565Z,0.50
2022-09-17T12:03:10.879Z,0.80
2022-09-17T12:08:22.903Z,0.82
2022-09-17T12:11:10.233Z,0.57
2022-09-17T12:13:51.499Z,0.70
2022-09-17T12:16:37.078Z,0.63
2022-09-17T12:19:37.684Z,0.80
2022-09-17T12:22:21.393Z,1.00
2022-09-17T12:24:52.237Z,1.10
2022-09-17T12:27:51.383Z,1.55
2022-09-17T12:30:23.357Z,1.10
2022-09-17T12:36:33.079Z,1.92
2022-09-17T12:39:05.903Z,0.60
2022-09-17T12:42:13.077Z,0.70
2022-09-17T12:44:50.608Z,0.60
2022-09-17T12:48:00.906Z,0.30
2022-09-17T12:51:04.265Z,0.50
2022-09-17T12:53:43.917Z,0.70
2022-09-17T12:56:37.758Z,1.00
2022-09-17T12:59:19.289Z,2.75
2022-09-17T13:02:16.402Z,0.73
2022-09-17T13:05:17.221Z,1.50
2022-09-17T13:08:08.030Z,0.82
2022-09-17T13:10:42.035Z,0.40
2022-09-17T13:13:25.304Z,0.80
2022-09-17T13:16:00.970Z,1.08
2022-09-17T13:18:41.729Z,5.70
2022-09-17T13:21:24.754Z,8.20
2022-09-17T13:23:55.164Z,3.83
2022-09-17T13:26:35.611Z,0.52
2022-09-17T13:29:04.414Z,0.40
2022-09-17T13:31:34.565Z,0.60
2022-09-17T13:34:06.531Z,0.63
2022-09-17T13:36:47.016Z,0.40
2022-09-17T13:39:40.451Z,0.50
2022-09-17T13:42:28.914Z,1.95
2022-09-17T13:45:13.305Z,4.00
2022-09-17T13:48:05.815Z,0.50
2022-09-17T13:53:16.738Z,2.03
2022-09-17T13:55:54.691Z,0.60
2022-09-17T13:58:21.718Z,0.45
2022-09-17T14:01:12.057Z,0.95
2022-09-17T14:03:44.430Z,0.98
2022-09-17T14:06:11.430Z,0.52
2022-09-17T14:08:44.544Z,0.20
2022-09-17T14:11:23.809Z,0.35
2022-09-17T14:13:58.398Z,0.30
2022-09-17T14:16:36.840Z,0.50
2022-09-17T14:19:16.044Z,0.70
2022-09-17T14:22:06.061Z,0.40
2022-09-17T14:24:52.327Z,0.40
2022-09-17T14:27:43.685Z,0.40
2022-09-17T14:30:24.103Z,0.57
2022-09-17T14:33:19.500Z,0.40
2022-09-17T14:35:52.717Z,0.30
2022-09-17T14:38:45.869Z,0.95
2022-09-17T14:41:12.982Z,0.70
2022-09-17T14:44:01.445Z,0.68
2022-09-17T14:46:41.263Z,0.63
2022-09-17T14:49:24.565Z,0.40
2022-09-17T14:51:53.739Z,0.50
2022-09-17T14:54:26.022Z,0.73
2022-09-17T14:56:57.543Z,0.68
2022-09-17T14:59:42.020Z,0.95
2022-09-17T15:02:43.765Z,0.55
2022-09-17T15:05:34.070Z,0.40
2022-09-17T15:08:10.135Z,0.35
2022-09-17T15:10:49.072Z,0.47
2022-09-17T15:13:21.928Z,0.77
2022-09-17T15:16:18.011Z,0.82
2022-09-17T15:19:00.097Z,0.93
2022-09-17T15:21:50.213Z,0.50
2022-09-17T15:24:50.385Z,0.30
2022-09-17T15:27:31.837Z,0.80
2022-09-17T15:30:16.252Z,0.40
2022-09-17T15:32:56.605Z,0.60
2022-09-17T15:35:31.577Z,0.80
2022-09-17T15:38:24.097Z,0.57
2022-09-17T15:40:52.024Z,0.90
2022-09-17T15:43:33.972Z,0.70
2022-09-17T15:46:26.660Z,0.50
2022-09-17T15:49:02.468Z,0.80
2022-09-17T15:51:35.956Z,0.45
2022-09-17T15:54:05.628Z,0.40
2022-09-17T15:56:39.373Z,0.80
2022-09-17T15:59:31.333Z,0.47
2022-09-17T16:02:01.579Z,0.73
2022-09-17T16:04:31.698Z,0.55
2022-09-17T16:07:07.856Z,0.60
2022-09-17T16:09:53.898Z,0.70
2022-09-17T16:12:25.299Z,0.70
2022-09-17T16:14:57.794Z,0.70
2022-09-17T16:17:46.675Z,0.57
2022-09-17T16:20:17.789Z,1.20
2022-09-17T16:22:47.856Z,0.65
2022-09-17T16:25:14.984Z,1.00
2022-09-17T16:28:15.467Z,0.80
2022-09-17T16:30:47.650Z,0.80
2022-09-17T16:33:16.826Z,0.73
2022-09-17T16:35:44.241Z,0.47
2022-09-17T16:38:12.831Z,0.45
2022-09-17T16:40:42.727Z,0.88
2022-09-17T16:43:09.959Z,1.02
2022-09-17T16:45:37.206Z,0.88
2022-09-17T16:48:06.031Z,0.60
2022-09-17T16:50:34.331Z,0.40
2022-09-17T16:53:04.860Z,0.60
2022-09-17T16:55:32.407Z,0.60
2022-09-17T16:57:59.385Z,0.68
2022-09-17T17:00:27.273Z,0.43
2022-09-17T17:02:56.891Z,0.75
2022-09-17T17:05:26.057Z,0.60
2022-09-17T17:07:55.241Z,0.68
2022-09-17T17:10:28.536Z,0.70
2022-09-17T17:12:56.427Z,0.60
2022-09-17T17:15:23.800Z,0.65
2022-09-17T17:17:51.288Z,0.60
2022-09-17T17:20:19.221Z,1.08
2022-09-17T17:22:46.201Z,0.60
2022-09-17T17:25:14.684Z,0.30
2022-09-17T17:27:42.452Z,0.70
2022-09-17T17:30:16.554Z,0.93
2022-09-17T17:32:44.970Z,0.65
2022-09-17T17:35:12.157Z,0.80
2022-09-17T17:37:39.323Z,0.20
2022-09-17T17:40:10.062Z,0.22
2022-09-17T17:42:39.483Z,0.28
2022-09-17T17:45:08.354Z,0.60
2022-09-17T17:47:38.659Z,0.32
2022-09-17T17:50:06.302Z,0.20
2022-09-17T17:52:33.251Z,0.30
2022-09-17T17:55:00.253Z,0.40
2022-09-17T17:57:27.202Z,0.30
2022-09-17T17:59:54.117Z,0.55
2022-09-17T18:02:21.291Z,0.68
2022-09-17T18:04:49.023Z,0.90
2022-09-17T18:07:16.090Z,0.68
2022-09-17T18:09:43.126Z,0.93
2022-09-17T18:12:10.110Z,0.65
2022-09-17T18:14:37.108Z,0.60
2022-09-17T18:17:04.047Z,1.00
2022-09-17T18:19:30.982Z,1.27
2022-09-17T18:21:57.911Z,0.47
2022-09-17T18:24:24.906Z,0.60
2022-09-17T18:26:51.870Z,0.82
2022-09-17T18:29:19.412Z,0.50
2022-09-17T18:31:46.497Z,1.25
2022-09-17T18:34:16.135Z,0.70
2022-09-17T18:36:50.758Z,0.68
2022-09-17T18:39:57.497Z,1.00
2022-09-17T18:42:05.497Z,0.80
2022-09-17T18:44:32.672Z,0.80
2022-09-17T18:46:59.686Z,0.70
2022-09-17T18:49:26.662Z,1.45
2022-09-17T18:51:53.543Z,0.70
2022-09-17T18:54:20.484Z,0.70
2022-09-17T18:56:47.410Z,0.38
2022-09-17T18:59:14.335Z,0.80
2022-09-17T19:01:43.141Z,1.00
2022-09-17T19:04:11.174Z,0.50
2022-09-17T19:06:38.151Z,0.60
2022-09-17T19:09:06.241Z,0.90
2022-09-17T19:11:36.166Z,1.00
2022-09-17T19:14:03.195Z,0.90
2022-09-17T19:16:30.571Z,1.08
2022-09-17T19:18:57.696Z,0.95
2022-09-17T19:21:24.608Z,0.60
2022-09-17T19:23:52.784Z,0.70
2022-09-17T19:26:22.119Z,0.93
2022-09-17T19:28:52.680Z,0.60
2022-09-17T19:31:19.820Z,0.57
2022-09-17T19:33:47.571Z,1.10
2022-09-17T19:36:16.970Z,0.80
2022-09-17T19:38:44.730Z,1.10
2022-09-17T19:41:15.345Z,0.60
2022-09-17T19:43:42.953Z,1.00
2022-09-17T19:46:17.720Z,0.70
2022-09-17T19:48:50.570Z,1.20
2022-09-17T19:51:18.633Z,0.90
2022-09-17T19:53:45.992Z,0.65
2022-09-17T19:56:16.494Z,1.38
2022-09-17T19:58:43.810Z,0.60
2022-09-17T20:01:11.518Z,0.70
2022-09-17T20:03:42.816Z,1.27
2022-09-17T20:06:16.921Z,1.00
2022-09-17T20:08:46.972Z,0.47
2022-09-17T20:11:15.014Z,0.60
2022-09-17T20:13:42.014Z,0.30
2022-09-17T20:16:18.825Z,1.02
2022-09-17T20:18:46.677Z,0.65
2022-09-17T20:21:16.764Z,0.60
2022-09-17T20:23:44.021Z,0.60
2022-09-17T20:26:12.519Z,0.40
2022-09-17T20:28:43.514Z,0.57
2022-09-17T20:31:14.406Z,0.60
2022-09-17T20:33:42.144Z,0.52
2022-09-17T20:36:14.653Z,0.30
2022-09-17T20:39:22.052Z,0.47
2022-09-17T20:41:31.215Z,0.70
2022-09-17T20:43:58.641Z,0.52
2022-09-17T20:46:29.389Z,0.80
2022-09-17T20:48:58.178Z,0.50
2022-09-17T20:51:29.287Z,0.35
2022-09-17T20:54:01.460Z,0.60
2022-09-17T20:56:31.669Z,0.40
2022-09-17T20:59:12.923Z,0.52
2022-09-17T21:01:44.530Z,0.40
2022-09-17T21:04:17.325Z,0.40
2022-09-17T21:06:45.811Z,0.90
2022-09-17T21:09:17.346Z,0.40
2022-09-17T21:11:46.403Z,0.45
2022-09-17T21:14:15.808Z,0.68
2022-09-17T21:16:43.341Z,0.47
2022-09-17T21:19:12.590Z,0.40
2022-09-17T21:21:40.025Z,0.47
2022-09-17T21:24:10.005Z,0.50
2022-09-17T21:26:37.524Z,0.50
2022-09-17T21:29:04.613Z,0.40
2022-09-17T21:31:34.085Z,0.43
2022-09-17T21:34:04.225Z,0.50
2022-09-17T21:36:36.611Z,0.30
2022-09-17T21:39:13.524Z,0.38
2022-09-17T21:41:42.949Z,0.30
2022-09-17T21:44:13.926Z,0.38
2022-09-17T21:46:42.413Z,0.70
2022-09-17T21:49:10.350Z,0.40
2022-09-17T21:51:40.582Z,0.45
2022-09-17T21:54:13.734Z,0.70
2022-09-17T21:56:40.884Z,0.50
2022-09-17T21:59:11.570Z,0.30
2022-09-17T22:01:46.423Z,0.70
2022-09-17T22:04:17.444Z,0.75
2022-09-17T22:06:45.511Z,0.60
2022-09-17T22:09:19.865Z,0.68
2022-09-17T22:11:47.358Z,0.47
2022-09-17T22:14:19.541Z,0.70
2022-09-17T22:16:50.949Z,0.52
2022-09-17T22:19:19.819Z,0.97
2022-09-17T22:21:51.332Z,0.70
2022-09-17T22:24:20.908Z,1.25
2022-09-17T22:26:56.445Z,0.80
2022-09-17T22:29:26.528Z,0.60
2022-09-17T22:31:53.561Z,0.50
2022-09-17T22:34:22.662Z,0.70
2022-09-17T22:36:50.338Z,0.90
2022-09-17T22:39:20.806Z,0.50
2022-09-17T22:41:48.354Z,1.40
2022-09-17T22:44:18.383Z,0.70
2022-09-17T22:46:48.482Z,0.90
2022-09-17T22:49:16.159Z,0.70
2022-09-17T22:51:44.892Z,0.73
2022-09-17T22:54:14.204Z,0.60
2022-09-17T22:56:42.311Z,0.50
2022-09-17T22:59:09.791Z,0.70
2022-09-17T23:01:37.562Z,0.57
2022-09-17T23:04:05.926Z,0.38
2022-09-17T23:06:36.480Z,0.50
2022-09-17T23:09:04.240Z,0.75
2022-09-17T23:11:38.133Z,0.52
2022-09-17T23:14:11.566Z,0.93
2022-09-17T23:16:45.533Z,0.90
2022-09-17T23:19:13.573Z,0.60
2022-09-17T23:21:41.456Z,0.40
2022-09-17T23:24:11.337Z,0.70
2022-09-17T23:26:38.271Z,0.50
2022-09-17T23:29:05.903Z,0.60
2022-09-17T23:31:35.242Z,0.57
2022-09-17T23:34:03.807Z,0.73
2022-09-17T23:36:33.395Z,0.50
2022-09-17T23:39:02.609Z,0.70
2022-09-17T23:41:32.678Z,0.50
2022-09-17T23:44:02.745Z,0.45
2022-09-17T23:46:33.187Z,0.40
2022-09-17T23:49:00.513Z,0.88
2022-09-17T23:51:30.944Z,0.52
2022-09-17T23:53:59.198Z,0.50
2022-09-17T23:56:28.208Z,0.82
2022-09-17T23:58:56.856Z,0.30
